Hovedside
METAR-TAF:

METAR-TAF

Lufthavner :

Karlstad, Sverige

Karlstad lufthavn

breddegrad: 59-26-41N, lengdegrad: 013-20-15E, høyde over havet: 107 m

Gjeldene værobservasjon

Denne rapporten ble laget for 1 time og 16 minutter siden, klokken 09:50 UTC
Vind 6 kt fra Sør-sørvest, skiftende mellom Sør-sørøst og Vest
Temperatur 7°C
Luftfuktighet 57%
Trykk 1008 hPa
Sikt 10 km eller mer
ingen skyer under 1500 m og ingen bygeskyer

METAR: ESOK 270950Z 21006KT 160V270 CAVOK 07/M01 Q1008

Tid: 13:06 (11:06 UTC)

Varsel

Denne rapporten ble laget for 2 timer og 36 minutter siden, klokken 08:30 UTC
Varsel gyldig fra 27. klokken 09 UTC til 27. klokken 18 UTC
Vind 5 kt fra skiftende retning
Sikt 10 km eller mer
ingen skyer under 1500 m og ingen bygeskyer
Midlertidig
fra 27. klokken 12 UTC til 27. klokken 18 UTC
Brutte skyer i en høyde av 4000 ft, Bygeskyer.
regnbyger

TAF: ESOK 270830Z 2709/2718 VRB05KT CAVOK TEMPO 2712/2718 SHRA BKN040CB

Værobservasjoner og værvarsel for over 4000 flyplasser (METAR- og TAF-rapporter).

Tilgjengelige stasjoner er representert av de røde og gule prikkene på kartet.

Hold musepekeren over prikken for å se navnet på stasjonen.

Klikk så for å se værobservasjoner og -varsler.

For å forandre kartet kan du klikke på den grønne knappen med svart kryss for å zoome inn, på den grønne knappen med strek for å zoome ut, eller på de grønne pilene for å se tilstøtende kart.


METAR-TAF: